createdAt,value
2023-06-10T00:00:07.041Z,99300.19
2023-06-10T00:01:14.301Z,99297.81
2023-06-10T00:02:18.077Z,99299.44
2023-06-10T00:03:20.406Z,99306.81
2023-06-10T00:04:22.974Z,99299.41
2023-06-10T00:05:24.924Z,99299.41
2023-06-10T00:06:26.784Z,99303.09
2023-06-10T00:07:28.971Z,99298.88
2023-06-10T00:08:32.468Z,99300.44
2023-06-10T00:09:34.334Z,99295.16
2023-06-10T00:10:36.877Z,99305.22
2023-06-10T00:11:38.821Z,99300.75
2023-06-10T00:12:41.304Z,99295.97
2023-06-10T00:13:43.412Z,99299.69
2023-06-10T00:14:45.315Z,99301.28
2023-06-10T00:15:47.172Z,99300.47
2023-06-10T00:16:49.426Z,99299.16
2023-06-10T00:17:54.199Z,99298.38
2023-06-10T00:20:10.207Z,99294.94
2023-06-10T00:21:14.501Z,99297.56
2023-06-10T00:22:16.559Z,99297.81
2023-06-10T00:23:18.748Z,99295.72
2023-06-10T00:24:20.758Z,99290.72
2023-06-10T00:25:22.685Z,99299.69
2023-06-10T00:26:24.652Z,99293.63
2023-06-10T00:27:32.458Z,99302.59
2023-06-10T00:28:36.114Z,99300.50
2023-06-10T00:29:38.052Z,99303.12
2023-06-10T00:30:40.136Z,99301.28
2023-06-10T00:31:46.228Z,99288.34
2023-06-10T00:32:48.257Z,99291.50
2023-06-10T00:33:50.512Z,99298.38
2023-06-10T00:34:52.450Z,99299.44
2023-06-10T00:35:54.415Z,99292.84
2023-06-10T00:36:57.018Z,99298.91
2023-06-10T00:37:58.963Z,99299.97
2023-06-10T00:39:01.223Z,99297.84
2023-06-10T00:40:04.712Z,99302.09
2023-06-10T00:41:07.272Z,99296.28
2023-06-10T00:42:11.843Z,99297.31
2023-06-10T00:43:13.902Z,99302.09
2023-06-10T00:44:17.421Z,99301.03
2023-06-10T00:45:19.407Z,99295.50
2023-06-10T00:46:24.584Z,99294.97
2023-06-10T00:47:27.398Z,99303.66
2023-06-10T00:48:30.075Z,99299.16
2023-06-10T00:49:33.408Z,99298.91
2023-06-10T00:50:35.802Z,99298.91
2023-06-10T00:51:38.060Z,99304.97
2023-06-10T00:52:40.120Z,99297.84
2023-06-10T00:53:45.378Z,99298.38
2023-06-10T00:54:47.846Z,99302.34
2023-06-10T00:55:50.951Z,99299.94
2023-06-10T00:56:53.403Z,99295.47
2023-06-10T00:57:55.622Z,99298.38
2023-06-10T00:58:57.581Z,99302.31
2023-06-10T01:00:01.266Z,99296.28
2023-06-10T01:01:05.227Z,99293.66
2023-06-10T01:02:08.702Z,99297.03
2023-06-10T01:03:11.641Z,99299.37
2023-06-10T01:04:14.405Z,99297.78
2023-06-10T01:05:16.769Z,99298.03
2023-06-10T01:06:18.684Z,99301.44
2023-06-10T01:07:27.321Z,99306.47
2023-06-10T01:08:42.943Z,99299.87
2023-06-10T01:09:59.566Z,99303.59
2023-06-10T01:11:05.062Z,99297.00
2023-06-10T01:12:15.303Z,99304.09
2023-06-10T01:13:19.184Z,99299.37
2023-06-10T01:14:21.888Z,99295.94
2023-06-10T01:15:24.048Z,99298.06
2023-06-10T01:16:26.650Z,99299.13
2023-06-10T01:17:29.845Z,99294.63
2023-06-10T01:18:32.565Z,99301.22
2023-06-10T01:19:35.148Z,99299.94
2023-06-10T01:20:41.806Z,99294.97
2023-06-10T01:21:49.581Z,99295.97
2023-06-10T01:22:59.084Z,99296.47
2023-06-10T01:24:01.354Z,99297.81
2023-06-10T01:25:04.579Z,99296.19
2023-06-10T01:26:11.668Z,99301.22
2023-06-10T01:27:16.829Z,99302.00
2023-06-10T01:28:31.335Z,99298.81
2023-06-10T01:29:46.345Z,99293.50
2023-06-10T01:30:51.835Z,99299.59
2023-06-10T01:32:12.971Z,99296.69
2023-06-10T01:33:22.821Z,99301.44
2023-06-10T01:34:25.528Z,99300.66
2023-06-10T01:35:29.408Z,99304.09
2023-06-10T01:36:32.938Z,99295.91
2023-06-10T01:37:36.406Z,99301.72
2023-06-10T01:38:43.490Z,99303.81
2023-06-10T01:39:47.581Z,99306.19
2023-06-10T01:40:50.928Z,99301.38
2023-06-10T01:41:53.827Z,99301.34
2023-06-10T01:42:55.834Z,99300.31
2023-06-10T01:43:58.077Z,99302.97
2023-06-10T01:45:00.308Z,99300.34
2023-06-10T01:46:02.292Z,99301.94
2023-06-10T01:47:05.710Z,99302.72
2023-06-10T01:48:08.546Z,99301.69
2023-06-10T01:49:10.785Z,99303.28
2023-06-10T01:50:12.938Z,99302.28
2023-06-10T01:51:14.865Z,99300.13
2023-06-10T01:52:16.895Z,99296.19
2023-06-10T01:53:18.820Z,99297.25
2023-06-10T01:54:22.148Z,99298.03
2023-06-10T01:55:24.503Z,99294.34
2023-06-10T01:56:26.452Z,99299.06
2023-06-10T01:57:28.357Z,99291.94
2023-06-10T01:58:30.333Z,99303.47
2023-06-10T01:59:32.569Z,99295.31
2023-06-10T02:00:34.696Z,99294.00
2023-06-10T02:01:37.128Z,99298.22
2023-06-10T02:02:39.126Z,99305.84
2023-06-10T02:03:41.354Z,99300.34
2023-06-10T02:04:44.453Z,99302.69
2023-06-10T02:05:46.430Z,99298.72
2023-06-10T02:06:49.250Z,99299.03
2023-06-10T02:07:51.188Z,99297.75
2023-06-10T02:08:53.037Z,99305.63
2023-06-10T02:09:55.011Z,99297.72
2023-06-10T02:10:57.262Z,99299.25
2023-06-10T02:11:59.530Z,99300.84
2023-06-10T02:13:01.426Z,99306.69
2023-06-10T02:14:03.354Z,99305.09
2023-06-10T02:15:06.370Z,99297.19
2023-06-10T02:16:08.463Z,99305.13
2023-06-10T02:17:13.805Z,99301.97
2023-06-10T02:18:17.526Z,99297.25
2023-06-10T02:19:21.591Z,99304.09
2023-06-10T02:20:23.824Z,99301.72
2023-06-10T02:21:25.780Z,99307.78
2023-06-10T02:22:27.760Z,99308.84
2023-06-10T02:23:29.671Z,99306.72
2023-06-10T02:24:31.549Z,99299.87
2023-06-10T02:25:33.779Z,99301.69
2023-06-10T02:26:35.955Z,99305.66
2023-06-10T02:27:37.824Z,99307.47
2023-06-10T02:28:43.241Z,99308.00
2023-06-10T02:29:45.384Z,99303.78
2023-06-10T02:30:47.947Z,99303.47
2023-06-10T02:31:50.212Z,99298.53
2023-06-10T02:32:53.740Z,99304.81
2023-06-10T02:33:56.810Z,99302.19
2023-06-10T02:34:58.900Z,99305.38
2023-06-10T02:36:01.177Z,99307.53
2023-06-10T02:37:03.821Z,99301.44
2023-06-10T02:38:06.426Z,99298.31
2023-06-10T02:39:09.116Z,99302.25
2023-06-10T02:40:11.829Z,99305.91
2023-06-10T02:41:14.279Z,99302.44
2023-06-10T02:42:16.553Z,99298.19
2023-06-10T02:43:19.044Z,99298.22
2023-06-10T02:44:21.443Z,99298.78
2023-06-10T02:45:23.654Z,99294.81
2023-06-10T02:46:26.115Z,99298.78
2023-06-10T02:47:28.655Z,99304.06
2023-06-10T02:48:30.814Z,99298.28
2023-06-10T02:49:33.102Z,99300.94
2023-06-10T02:50:35.383Z,99305.16
2023-06-10T02:51:38.211Z,99300.66
2023-06-10T02:52:40.110Z,99304.62
2023-06-10T02:53:42.385Z,99298.53
2023-06-10T02:54:44.521Z,99298.78
2023-06-10T02:55:46.702Z,99296.44
2023-06-10T02:56:49.470Z,99300.94
2023-06-10T02:57:52.396Z,99302.78
2023-06-10T02:58:54.721Z,99303.84
2023-06-10T02:59:56.968Z,99299.91
2023-06-10T03:00:59.518Z,99303.31
2023-06-10T03:02:03.574Z,99311.78
2023-06-10T03:03:06.409Z,99308.34
2023-06-10T03:04:09.909Z,99306.47
2023-06-10T03:05:14.165Z,99306.72
2023-06-10T03:06:17.023Z,99310.97
2023-06-10T03:07:21.837Z,99316.25
2023-06-10T03:08:24.645Z,99313.38
2023-06-10T03:09:26.617Z,99319.44
2023-06-10T03:10:29.715Z,99308.91
2023-06-10T03:11:31.862Z,99319.16
2023-06-10T03:12:34.294Z,99307.81
2023-06-10T03:13:36.420Z,99312.34
2023-06-10T03:14:39.886Z,99306.31
2023-06-10T03:15:42.396Z,99316.56
2023-06-10T03:16:46.654Z,99307.63
2023-06-10T03:17:49.991Z,99306.84
2023-06-10T03:18:53.873Z,99313.69
2023-06-10T03:19:55.835Z,99311.59
2023-06-10T03:20:58.636Z,99306.03
2023-06-10T03:22:15.598Z,99308.41
2023-06-10T03:23:19.560Z,99315.25
2023-06-10T03:24:21.780Z,99311.31
2023-06-10T03:25:24.127Z,99314.22
2023-06-10T03:26:28.431Z,99316.31
2023-06-10T03:27:31.470Z,99317.91
2023-06-10T03:28:34.053Z,99312.12
2023-06-10T03:29:36.974Z,99309.19
2023-06-10T03:30:39.839Z,99314.75
2023-06-10T03:31:42.276Z,99321.59
2023-06-10T03:32:44.548Z,99318.72
2023-06-10T03:33:47.868Z,99320.53
2023-06-10T03:34:49.894Z,99323.19
2023-06-10T03:35:52.178Z,99326.88
2023-06-10T03:36:54.361Z,99322.13
2023-06-10T03:37:56.410Z,99321.59
2023-06-10T03:38:58.789Z,99319.50
2023-06-10T03:40:00.908Z,99324.00
2023-06-10T03:41:02.784Z,99324.78
2023-06-10T03:42:05.847Z,99327.41
2023-06-10T03:43:08.326Z,99324.25
2023-06-10T03:44:11.067Z,99325.03
2023-06-10T03:45:13.688Z,99325.56
2023-06-10T03:46:16.105Z,99330.06
2023-06-10T03:47:18.071Z,99333.50
2023-06-10T03:48:20.296Z,99331.09
2023-06-10T03:49:27.749Z,99329.47
2023-06-10T03:50:30.300Z,99323.63
2023-06-10T03:51:32.238Z,99329.66
2023-06-10T03:52:34.408Z,99329.41
2023-06-10T03:53:36.274Z,99333.62
2023-06-10T03:54:38.468Z,99333.13
2023-06-10T03:55:40.669Z,99325.78
2023-06-10T03:56:42.554Z,99329.53
2023-06-10T03:57:44.668Z,99332.16
2023-06-10T03:58:47.666Z,99336.38
2023-06-10T03:59:50.158Z,99331.63
2023-06-10T04:00:52.071Z,99332.94
2023-06-10T04:01:53.950Z,99332.69
2023-06-10T04:02:59.230Z,99334.81
2023-06-10T04:04:02.386Z,99330.59
2023-06-10T04:05:04.515Z,99327.41
2023-06-10T04:06:06.593Z,99333.50
2023-06-10T04:07:09.816Z,99331.13
2023-06-10T04:08:12.064Z,99328.50
2023-06-10T04:09:13.957Z,99326.09
2023-06-10T04:10:16.640Z,99338.50
2023-06-10T04:11:18.657Z,99331.37
2023-06-10T04:12:21.233Z,99330.59
2023-06-10T04:13:23.575Z,99327.97
2023-06-10T04:14:26.282Z,99332.16
2023-06-10T04:15:29.084Z,99327.41
2023-06-10T04:16:32.524Z,99328.50
2023-06-10T04:17:35.584Z,99329.00
2023-06-10T04:18:38.118Z,99324.78
2023-06-10T04:19:40.512Z,99329.81
2023-06-10T04:20:43.375Z,99327.41
2023-06-10T04:21:45.450Z,99321.59
2023-06-10T04:22:47.440Z,99329.81
2023-06-10T04:23:50.668Z,99326.88
2023-06-10T04:24:52.881Z,99327.94
2023-06-10T04:25:55.381Z,99324.53
2023-06-10T04:26:57.550Z,99327.88
2023-06-10T04:27:59.510Z,99328.19
2023-06-10T04:29:01.818Z,99331.63
2023-06-10T04:30:05.457Z,99326.84
2023-06-10T04:31:08.161Z,99329.50
2023-06-10T04:32:10.814Z,99334.25
2023-06-10T04:33:13.398Z,99327.38
2023-06-10T04:34:15.839Z,99323.16
2023-06-10T04:35:17.875Z,99328.97
2023-06-10T04:36:20.508Z,99331.63
2023-06-10T04:37:22.405Z,99329.78
2023-06-10T04:38:24.416Z,99329.50
2023-06-10T04:39:27.039Z,99321.81
2023-06-10T04:40:28.952Z,99326.59
2023-06-10T04:41:31.413Z,99325.78
2023-06-10T04:42:33.314Z,99326.59
2023-06-10T04:43:35.697Z,99326.34
2023-06-10T04:44:37.841Z,99321.31
2023-06-10T04:45:39.798Z,99332.13
2023-06-10T04:46:42.139Z,99324.19
2023-06-10T04:47:45.279Z,99323.16
2023-06-10T04:48:48.309Z,99320.75
2023-06-10T04:49:50.751Z,99321.03
2023-06-10T04:50:52.905Z,99319.19
2023-06-10T04:51:54.798Z,99318.41
2023-06-10T04:53:00.217Z,99323.16
2023-06-10T04:54:05.026Z,99329.47
2023-06-10T04:55:07.976Z,99333.72
2023-06-10T04:56:10.181Z,99322.59
2023-06-10T04:57:12.660Z,99322.06
2023-06-10T04:58:14.823Z,99328.38
2023-06-10T04:59:16.678Z,99327.31
2023-06-10T05:00:19.712Z,99321.72
2023-06-10T05:01:21.677Z,99325.69
2023-06-10T05:02:23.613Z,99313.00
2023-06-10T05:03:25.655Z,99317.50
2023-06-10T05:04:27.639Z,99313.00
2023-06-10T05:05:29.884Z,99323.34
2023-06-10T05:06:31.735Z,99319.56
2023-06-10T05:07:33.612Z,99316.13
2023-06-10T05:08:35.624Z,99322.97
2023-06-10T05:09:38.137Z,99318.47
2023-06-10T05:10:40.523Z,99325.06
2023-06-10T05:11:42.716Z,99324.53
2023-06-10T05:12:44.691Z,99322.91
2023-06-10T05:13:46.698Z,99324.75
2023-06-10T05:14:48.557Z,99328.19
2023-06-10T05:15:50.872Z,99321.34
2023-06-10T05:16:52.764Z,99323.22
2023-06-10T05:17:58.461Z,99321.09
2023-06-10T05:19:00.380Z,99327.97
2023-06-10T05:20:03.769Z,99319.28
2023-06-10T05:21:06.177Z,99322.44
2023-06-10T05:22:08.068Z,99320.00
2023-06-10T05:23:10.036Z,99321.81
2023-06-10T05:24:12.468Z,99319.38
2023-06-10T05:25:14.426Z,99326.78
2023-06-10T05:26:16.727Z,99327.09
2023-06-10T05:27:18.628Z,99330.25
2023-06-10T05:28:20.794Z,99323.88
2023-06-10T05:29:22.678Z,99327.63
2023-06-10T05:30:25.683Z,99331.28
2023-06-10T05:31:27.910Z,99327.28
2023-06-10T05:32:29.826Z,99324.88
2023-06-10T05:33:31.698Z,99324.81
2023-06-10T05:34:33.598Z,99335.69
2023-06-10T05:35:35.545Z,99328.22
2023-06-10T05:36:38.120Z,99328.28
2023-06-10T05:37:40.179Z,99328.47
2023-06-10T05:38:42.098Z,99322.63
2023-06-10T05:39:43.977Z,99332.78
2023-06-10T05:40:46.615Z,99319.50
2023-06-10T05:41:49.076Z,99330.66
2023-06-10T05:42:51.057Z,99345.97
2023-06-10T05:43:53.059Z,99331.66
2023-06-10T05:44:55.122Z,99332.00
2023-06-10T05:45:57.021Z,99335.69
2023-06-10T05:46:59.222Z,99341.75
2023-06-10T05:48:01.178Z,99348.91
2023-06-10T05:49:03.883Z,99340.13
2023-06-10T05:50:09.941Z,99343.81
2023-06-10T05:51:11.854Z,99341.66
2023-06-10T05:52:14.092Z,99342.25
2023-06-10T05:53:16.661Z,99343.09
2023-06-10T05:54:18.557Z,99346.53
2023-06-10T05:55:20.546Z,99344.97
2023-06-10T05:56:26.885Z,99342.06
2023-06-10T05:57:29.131Z,99344.94
2023-06-10T05:58:31.117Z,99343.88
2023-06-10T05:59:33.047Z,99341.53
2023-06-10T06:00:37.368Z,99342.62
2023-06-10T06:01:40.748Z,99340.81
2023-06-10T06:02:42.689Z,99349.47
2023-06-10T06:03:44.689Z,99342.12
2023-06-10T06:04:46.869Z,99347.66
2023-06-10T06:05:48.797Z,99344.97
2023-06-10T06:06:51.044Z,99349.47
2023-06-10T06:07:53.203Z,99348.62
2023-06-10T06:08:55.155Z,99334.84
2023-06-10T06:09:57.032Z,99339.13
2023-06-10T06:10:59.344Z,99340.84
2023-06-10T06:12:01.592Z,99342.81
2023-06-10T06:13:03.859Z,99341.25
2023-06-10T06:14:05.819Z,99330.06
2023-06-10T06:15:09.896Z,99341.44
2023-06-10T06:16:11.953Z,99336.94
2023-06-10T06:17:14.219Z,99340.31
2023-06-10T06:18:16.188Z,99337.94
2023-06-10T06:19:18.114Z,99335.72
2023-06-10T06:20:24.203Z,99338.31
2023-06-10T06:21:26.233Z,99332.94
2023-06-10T06:22:28.425Z,99333.88
2023-06-10T06:23:31.533Z,99338.44
2023-06-10T06:24:33.766Z,99334.75
2023-06-10T06:25:36.767Z,99339.09
2023-06-10T06:26:38.684Z,99341.06
2023-06-10T06:27:40.844Z,99343.09
2023-06-10T06:28:42.722Z,99338.25
2023-06-10T06:29:44.609Z,99337.78
2023-06-10T06:30:46.862Z,99344.28
2023-06-10T06:31:48.775Z,99337.41
2023-06-10T06:32:51.115Z,99337.84
2023-06-10T06:33:53.051Z,99344.78
2023-06-10T06:34:57.763Z,99339.38
2023-06-10T06:36:01.273Z,99346.09
2023-06-10T06:37:03.253Z,99347.97
2023-06-10T06:38:06.628Z,99349.84
2023-06-10T06:39:08.698Z,99343.91
2023-06-10T06:40:12.477Z,99346.63
2023-06-10T06:41:14.337Z,99339.69
2023-06-10T06:42:16.308Z,99341.62
2023-06-10T06:43:21.266Z,99344.28
2023-06-10T06:44:23.572Z,99349.22
2023-06-10T06:45:26.091Z,99346.44
2023-06-10T06:46:29.584Z,99344.44
2023-06-10T06:47:31.773Z,99347.53
2023-06-10T06:48:34.191Z,99346.91
2023-06-10T06:49:36.793Z,99351.78
2023-06-10T06:50:38.768Z,99351.13
2023-06-10T06:51:40.668Z,99344.47
2023-06-10T06:52:42.579Z,99344.66
2023-06-10T06:53:47.537Z,99344.84
2023-06-10T06:54:49.688Z,99347.50
2023-06-10T06:55:51.541Z,99347.72
2023-06-10T06:56:53.361Z,99351.09
2023-06-10T06:57:55.398Z,99359.09
2023-06-10T06:58:58.378Z,99352.50
2023-06-10T07:00:00.495Z,99355.59
2023-06-10T07:01:02.492Z,99357.47
2023-06-10T07:02:04.783Z,99351.03
2023-06-10T07:03:06.755Z,99355.72
2023-06-10T07:04:09.184Z,99360.19
2023-06-10T07:05:11.685Z,99355.03
2023-06-10T07:06:14.656Z,99360.78
2023-06-10T07:07:16.699Z,99358.31
2023-06-10T07:08:18.585Z,99362.19
2023-06-10T07:09:20.793Z,99350.69
2023-06-10T07:10:23.959Z,99359.63
2023-06-10T07:11:26.542Z,99361.09
2023-06-10T07:12:29.170Z,99363.72
2023-06-10T07:13:32.818Z,99361.37
2023-06-10T07:14:35.372Z,99358.13
2023-06-10T07:15:37.257Z,99356.53
2023-06-10T07:16:39.161Z,99358.06
2023-06-10T07:17:41.139Z,99358.25
2023-06-10T07:18:43.228Z,99358.66
2023-06-10T07:19:46.472Z,99356.06
2023-06-10T07:20:50.425Z,99357.25
2023-06-10T07:21:53.001Z,99363.22
2023-06-10T07:22:54.952Z,99360.50
2023-06-10T07:23:57.040Z,99365.16
2023-06-10T07:24:59.785Z,99356.19
2023-06-10T07:26:01.724Z,99359.69
2023-06-10T07:27:03.752Z,99359.63
2023-06-10T07:28:05.757Z,99361.59
2023-06-10T07:29:07.742Z,99368.28
2023-06-10T07:30:10.400Z,99364.66
2023-06-10T07:31:13.262Z,99369.09
2023-06-10T07:32:17.293Z,99370.03
2023-06-10T07:33:21.261Z,99366.91
2023-06-10T07:34:23.135Z,99362.28
2023-06-10T07:35:25.720Z,99361.41
2023-06-10T07:36:30.778Z,99364.72
2023-06-10T07:37:32.665Z,99369.88
2023-06-10T07:38:35.142Z,99368.03
2023-06-10T07:39:37.048Z,99364.19
2023-06-10T07:40:39.205Z,99367.16
2023-06-10T07:41:41.080Z,99364.19
2023-06-10T07:42:44.229Z,99370.50
2023-06-10T07:43:46.339Z,99370.63
2023-06-10T07:44:48.362Z,99364.75
2023-06-10T07:45:50.768Z,99363.28
2023-06-10T07:46:52.737Z,99362.75
2023-06-10T07:47:54.796Z,99361.88
2023-06-10T07:48:56.709Z,99365.16
2023-06-10T07:49:58.628Z,99356.38
2023-06-10T07:51:00.867Z,99364.53
2023-06-10T07:52:03.090Z,99363.75
2023-06-10T07:53:05.016Z,99361.37
2023-06-10T07:54:07.027Z,99364.97
2023-06-10T07:55:09.315Z,99356.31
2023-06-10T07:56:11.816Z,99358.56
2023-06-10T07:57:13.725Z,99368.75
2023-06-10T07:58:15.571Z,99366.06
2023-06-10T07:59:17.498Z,99366.50
2023-06-10T08:00:20.100Z,99371.50
2023-06-10T08:01:23.969Z,99362.91
2023-06-10T08:02:26.119Z,99363.63
2023-06-10T08:03:28.252Z,99364.62
2023-06-10T08:04:32.008Z,99364.59
2023-06-10T08:05:34.149Z,99365.16
2023-06-10T08:06:37.697Z,99365.78
2023-06-10T08:07:41.056Z,99363.97
2023-06-10T08:08:44.803Z,99364.41
2023-06-10T08:09:46.854Z,99365.03
2023-06-10T08:10:50.438Z,99365.44
2023-06-10T08:11:52.921Z,99364.62
2023-06-10T08:12:55.338Z,99362.97
2023-06-10T08:13:57.247Z,99359.81
2023-06-10T08:14:59.389Z,99365.16
2023-06-10T08:16:01.279Z,99361.03
2023-06-10T08:17:06.176Z,99363.91
2023-06-10T08:18:08.184Z,99366.06
2023-06-10T08:19:10.480Z,99356.41
2023-06-10T08:20:12.442Z,99360.53
2023-06-10T08:21:14.410Z,99363.97
2023-06-10T08:22:16.651Z,99363.38
2023-06-10T08:23:18.529Z,99360.81
2023-06-10T08:24:21.290Z,99364.16
2023-06-10T08:25:23.457Z,99361.97
2023-06-10T08:26:25.733Z,99362.66
2023-06-10T08:27:28.415Z,99363.53
2023-06-10T08:28:30.356Z,99366.69
2023-06-10T08:29:33.021Z,99360.22
2023-06-10T08:30:34.906Z,99358.50
2023-06-10T08:31:36.878Z,99360.31
2023-06-10T08:32:39.105Z,99360.66
2023-06-10T08:33:43.240Z,99359.88
2023-06-10T08:34:45.089Z,99357.66
2023-06-10T08:35:47.164Z,99359.75
2023-06-10T08:36:54.124Z,99354.56
2023-06-10T08:37:56.379Z,99357.19
2023-06-10T08:38:58.351Z,99360.13
2023-06-10T08:40:00.256Z,99358.41
2023-06-10T08:41:03.196Z,99361.34
2023-06-10T08:42:11.156Z,99357.88
2023-06-10T08:43:39.347Z,99359.69
2023-06-10T08:44:41.415Z,99356.44
2023-06-10T08:45:49.352Z,99364.41
2023-06-10T08:46:52.977Z,99359.25
2023-06-10T08:47:58.556Z,99356.28
2023-06-10T08:49:05.014Z,99350.53
2023-06-10T08:50:08.839Z,99349.41
2023-06-10T08:51:12.892Z,99350.12
2023-06-10T08:52:19.443Z,99351.25
2023-06-10T08:53:22.033Z,99350.75
2023-06-10T08:54:28.257Z,99352.28
2023-06-10T08:55:36.581Z,99351.38
2023-06-10T08:56:41.597Z,99355.13
2023-06-10T08:57:45.613Z,99354.94
2023-06-10T08:58:49.039Z,99352.59
2023-06-10T08:59:51.242Z,99347.06
2023-06-10T09:00:53.692Z,99347.25
2023-06-10T09:01:55.952Z,99347.94
2023-06-10T09:03:01.640Z,99350.38
2023-06-10T09:04:07.362Z,99348.38
2023-06-10T09:05:10.458Z,99349.16
2023-06-10T09:06:12.694Z,99347.38
2023-06-10T09:07:16.132Z,99337.78
2023-06-10T09:08:18.594Z,99336.50
2023-06-10T09:09:21.446Z,99340.25
2023-06-10T09:10:23.724Z,99336.94
2023-06-10T09:11:26.758Z,99342.16
2023-06-10T09:12:28.724Z,99334.09
2023-06-10T09:13:30.686Z,99331.84
2023-06-10T09:14:32.554Z,99339.59
2023-06-10T09:15:34.958Z,99328.53
2023-06-10T09:16:37.130Z,99337.28
2023-06-10T09:17:41.695Z,99335.28
2023-06-10T09:18:44.529Z,99330.31
2023-06-10T09:19:47.590Z,99334.38
2023-06-10T09:20:49.803Z,99328.06
2023-06-10T09:21:51.754Z,99327.44
2023-06-10T09:22:54.470Z,99322.53
2023-06-10T09:23:56.451Z,99319.03
2023-06-10T09:25:10.263Z,99319.78
2023-06-10T09:26:12.778Z,99320.59
2023-06-10T09:27:14.828Z,99329.84
2023-06-10T09:28:17.191Z,99320.00
2023-06-10T09:29:19.126Z,99317.81
2023-06-10T09:30:35.191Z,99319.59
2023-06-10T09:31:38.822Z,99320.72
2023-06-10T09:32:41.218Z,99322.94
2023-06-10T09:33:43.984Z,99319.62
2023-06-10T09:34:47.202Z,99319.59
2023-06-10T09:35:50.638Z,99311.00
2023-06-10T09:36:53.205Z,99317.59
2023-06-10T09:37:56.749Z,99312.72
2023-06-10T09:38:58.682Z,99317.13
2023-06-10T09:40:07.844Z,99313.03
2023-06-10T09:41:10.049Z,99320.59
2023-06-10T09:42:19.657Z,99319.59
2023-06-10T09:43:22.169Z,99320.53
2023-06-10T09:44:25.659Z,99317.66
2023-06-10T09:45:35.004Z,99312.63
2023-06-10T09:46:36.987Z,99314.22
2023-06-10T09:47:39.277Z,99318.09
2023-06-10T09:48:46.099Z,99321.06
2023-06-10T09:49:47.993Z,99315.50
2023-06-10T09:50:49.933Z,99314.72
2023-06-10T09:51:53.009Z,99325.88
2023-06-10T09:52:55.250Z,99326.06
2023-06-10T09:53:57.174Z,99325.19
2023-06-10T09:55:03.594Z,99319.94
2023-06-10T09:56:08.759Z,99324.94
2023-06-10T09:57:12.584Z,99318.28
2023-06-10T09:58:15.564Z,99321.16
2023-06-10T09:59:17.556Z,99310.69
2023-06-10T10:00:19.829Z,99318.78
2023-06-10T10:01:21.721Z,99313.06
2023-06-10T10:02:24.031Z,99320.94
2023-06-10T10:03:25.964Z,99320.03
2023-06-10T10:04:29.610Z,99318.13
2023-06-10T10:05:31.825Z,99315.44
2023-06-10T10:06:35.218Z,99316.19
2023-06-10T10:07:37.418Z,99315.53
2023-06-10T10:08:39.323Z,99312.28
2023-06-10T10:09:42.312Z,99318.41
2023-06-10T10:10:44.298Z,99306.78
2023-06-10T10:11:47.147Z,99314.28
2023-06-10T10:12:52.205Z,99315.97
2023-06-10T10:13:54.329Z,99316.78
2023-06-10T10:14:57.723Z,99317.69
2023-06-10T10:16:02.772Z,99311.50
2023-06-10T10:17:12.209Z,99311.69
2023-06-10T10:18:17.683Z,99311.50
2023-06-10T10:19:29.183Z,99315.75
2023-06-10T10:20:34.359Z,99304.66
2023-06-10T10:21:41.014Z,99315.81
2023-06-10T10:22:44.712Z,99307.28
2023-06-10T10:24:02.458Z,99312.97
2023-06-10T10:25:09.964Z,99314.91
2023-06-10T10:26:13.330Z,99314.50
2023-06-10T10:27:37.777Z,99313.84
2023-06-10T10:28:46.538Z,99311.81
2023-06-10T10:29:52.481Z,99310.62
2023-06-10T10:31:00.694Z,99308.75
2023-06-10T10:32:03.382Z,99306.16
2023-06-10T10:33:18.207Z,99307.19
2023-06-10T10:34:26.823Z,99311.84
2023-06-10T10:35:29.230Z,99303.94
2023-06-10T10:36:31.457Z,99305.19
2023-06-10T10:37:33.765Z,99299.53
2023-06-10T10:38:37.002Z,99298.34
2023-06-10T10:39:39.111Z,99299.13
2023-06-10T10:40:42.329Z,99300.13
2023-06-10T10:41:45.260Z,99303.09
2023-06-10T10:42:50.393Z,99301.22
2023-06-10T10:43:53.569Z,99295.88
2023-06-10T10:44:56.565Z,99295.25
2023-06-10T10:46:00.492Z,99298.56
2023-06-10T10:47:05.428Z,99299.50
2023-06-10T10:48:12.999Z,99295.09
2023-06-10T10:49:16.530Z,99293.19
2023-06-10T10:50:21.278Z,99296.38
2023-06-10T10:51:26.594Z,99297.16
2023-06-10T10:52:51.908Z,99291.84
2023-06-10T10:54:16.274Z,99293.25
2023-06-10T10:55:18.204Z,99287.25
2023-06-10T10:56:20.225Z,99289.78
2023-06-10T10:57:24.635Z,99286.00
2023-06-10T10:58:27.275Z,99288.00
2023-06-10T10:59:57.725Z,99287.56
2023-06-10T11:00:59.982Z,99280.34
2023-06-10T11:02:02.022Z,99278.28
2023-06-10T11:03:07.405Z,99284.09
2023-06-10T11:04:12.104Z,99280.16
2023-06-10T11:05:18.162Z,99280.31
2023-06-10T11:06:20.603Z,99272.78
2023-06-10T11:07:22.996Z,99281.91
2023-06-10T11:08:34.653Z,99263.84
2023-06-10T11:09:36.629Z,99264.19
2023-06-10T11:10:41.088Z,99262.78
2023-06-10T11:11:51.564Z,99263.06
2023-06-10T11:12:54.405Z,99254.25
2023-06-10T11:14:26.974Z,99254.59
2023-06-10T11:15:30.760Z,99253.94
2023-06-10T11:16:43.381Z,99255.84
2023-06-10T11:18:12.977Z,99258.66
2023-06-10T11:19:35.530Z,99255.03
2023-06-10T11:20:49.615Z,99259.94
2023-06-10T11:22:04.864Z,99252.88
2023-06-10T11:23:06.770Z,99257.09
2023-06-10T11:24:15.188Z,99254.44
2023-06-10T11:25:17.437Z,99251.44
2023-06-10T11:26:32.351Z,99259.00
2023-06-10T11:27:40.543Z,99251.75
2023-06-10T11:28:48.937Z,99255.94
2023-06-10T11:30:04.431Z,99254.84
2023-06-10T11:31:07.200Z,99255.00
2023-06-10T11:32:09.207Z,99253.72
2023-06-10T11:33:18.592Z,99248.22
2023-06-10T11:34:26.065Z,99251.19
2023-06-10T11:35:28.464Z,99245.69
2023-06-10T11:36:31.031Z,99247.09
2023-06-10T11:37:32.993Z,99250.91
2023-06-10T11:38:34.994Z,99255.13
2023-06-10T11:39:36.888Z,99247.00
2023-06-10T11:40:39.683Z,99248.88
2023-06-10T11:41:42.088Z,99246.03
2023-06-10T11:42:44.190Z,99248.09
2023-06-10T11:43:46.669Z,99252.09
2023-06-10T11:44:51.071Z,99247.06
2023-06-10T11:45:56.624Z,99248.94
2023-06-10T11:46:58.912Z,99246.09
2023-06-10T11:48:01.504Z,99250.00
2023-06-10T11:49:04.347Z,99245.63
2023-06-10T11:50:06.721Z,99245.47
2023-06-10T11:51:09.308Z,99249.72
2023-06-10T11:52:12.047Z,99244.66
2023-06-10T11:53:14.021Z,99242.94
2023-06-10T11:54:17.178Z,99248.41
2023-06-10T11:55:19.064Z,99247.81
2023-06-10T11:56:25.256Z,99241.81
2023-06-10T11:57:27.433Z,99240.69
2023-06-10T11:58:29.424Z,99239.44
2023-06-10T11:59:31.802Z,99240.09
2023-06-10T12:00:33.817Z,99239.16
2023-06-10T12:01:44.685Z,99236.16
2023-06-10T12:02:47.061Z,99232.72
2023-06-10T12:03:49.258Z,99227.97
2023-06-10T12:04:51.284Z,99235.53
2023-06-10T12:06:04.586Z,99234.22
2023-06-10T12:07:06.753Z,99234.06
2023-06-10T12:08:13.113Z,99235.31
2023-06-10T12:09:29.782Z,99233.84
2023-06-10T12:10:31.960Z,99232.47
2023-06-10T12:11:34.974Z,99233.66
2023-06-10T12:12:38.010Z,99224.09
2023-06-10T12:13:49.564Z,99222.97
2023-06-10T12:14:54.924Z,99228.78
2023-06-10T12:16:08.121Z,99222.22
2023-06-10T12:17:10.046Z,99226.66
2023-06-10T12:18:38.258Z,99231.56
2023-06-10T12:19:41.562Z,99224.19
2023-06-10T12:20:43.748Z,99227.31
2023-06-10T12:21:45.923Z,99225.78
2023-06-10T12:22:47.804Z,99226.94
2023-06-10T12:24:10.621Z,99224.72
2023-06-10T12:25:13.493Z,99225.22
2023-06-10T12:26:17.351Z,99218.59
2023-06-10T12:27:19.781Z,99220.84
2023-06-10T12:28:26.071Z,99217.69